sensor_id;sensor_type;location;lat;lon;timestamp;P1;durP1;ratioP1;P2;durP2;ratioP2
11572;SDS011;5842;52.426;4.886;2022-07-29T00:01:35;4.50;;;2.30;;
11572;SDS011;5842;52.426;4.886;2022-07-29T00:04:02;3.87;;;2.10;;
11572;SDS011;5842;52.426;4.886;2022-07-29T00:06:29;5.37;;;2.40;;
11572;SDS011;5842;52.426;4.886;2022-07-29T00:08:57;3.77;;;2.40;;
11572;SDS011;5842;52.426;4.886;2022-07-29T00:11:24;2.93;;;2.20;;
11572;SDS011;5842;52.426;4.886;2022-07-29T00:13:51;2.40;;;2.07;;
11572;SDS011;5842;52.426;4.886;2022-07-29T00:16:20;2.93;;;2.10;;
11572;SDS011;5842;52.426;4.886;2022-07-29T00:18:48;3.77;;;2.43;;
11572;SDS011;5842;52.426;4.886;2022-07-29T00:21:15;4.87;;;2.20;;
11572;SDS011;5842;52.426;4.886;2022-07-29T00:23:42;4.13;;;2.20;;
11572;SDS011;5842;52.426;4.886;2022-07-29T00:26:09;2.83;;;1.90;;
11572;SDS011;5842;52.426;4.886;2022-07-29T00:28:36;3.23;;;2.00;;
11572;SDS011;5842;52.426;4.886;2022-07-29T00:31:03;5.30;;;2.73;;
11572;SDS011;5842;52.426;4.886;2022-07-29T00:33:32;4.83;;;2.03;;
11572;SDS011;5842;52.426;4.886;2022-07-29T00:35:59;3.17;;;2.03;;
11572;SDS011;5842;52.426;4.886;2022-07-29T00:38:25;5.30;;;2.00;;
11572;SDS011;5842;52.426;4.886;2022-07-29T00:40:52;2.47;;;1.90;;
11572;SDS011;5842;52.426;4.886;2022-07-29T00:43:19;5.67;;;2.20;;
11572;SDS011;5842;52.426;4.886;2022-07-29T00:45:46;2.53;;;1.93;;
11572;SDS011;5842;52.426;4.886;2022-07-29T00:48:13;3.63;;;2.20;;
11572;SDS011;5842;52.426;4.886;2022-07-29T00:50:41;4.93;;;2.13;;
11572;SDS011;5842;52.426;4.886;2022-07-29T00:53:08;3.17;;;2.17;;
11572;SDS011;5842;52.426;4.886;2022-07-29T00:55:38;3.33;;;2.00;;
11572;SDS011;5842;52.426;4.886;2022-07-29T00:58:05;3.70;;;2.03;;
11572;SDS011;5842;52.426;4.886;2022-07-29T01:00:33;3.13;;;2.00;;
11572;SDS011;5842;52.426;4.886;2022-07-29T01:03:01;2.90;;;1.80;;
11572;SDS011;5842;52.426;4.886;2022-07-29T01:05:29;4.07;;;2.10;;
11572;SDS011;5842;52.426;4.886;2022-07-29T01:07:58;3.67;;;2.00;;
11572;SDS011;5842;52.426;4.886;2022-07-29T01:10:26;2.50;;;1.90;;
11572;SDS011;5842;52.426;4.886;2022-07-29T01:12:54;3.53;;;1.93;;
11572;SDS011;5842;52.426;4.886;2022-07-29T01:15:24;5.00;;;2.30;;
11572;SDS011;5842;52.426;4.886;2022-07-29T01:17:52;3.53;;;2.00;;
11572;SDS011;5842;52.426;4.886;2022-07-29T01:20:31;4.57;;;2.20;;
11572;SDS011;5842;52.426;4.886;2022-07-29T01:23:19;2.30;;;2.00;;
11572;SDS011;5842;52.426;4.886;2022-07-29T01:29:07;3.20;;;2.40;;
11572;SDS011;5842;52.426;4.886;2022-07-29T01:31:42;2.30;;;2.10;;
11572;SDS011;5842;52.426;4.886;2022-07-29T01:34:13;2.60;;;1.97;;
11572;SDS011;5842;52.426;4.886;2022-07-29T01:36:47;3.30;;;2.27;;
11572;SDS011;5842;52.426;4.886;2022-07-29T01:39:19;2.77;;;2.00;;
11572;SDS011;5842;52.426;4.886;2022-07-29T01:41:54;4.47;;;2.53;;
11572;SDS011;5842;52.426;4.886;2022-07-29T01:44:26;3.30;;;2.50;;
11572;SDS011;5842;52.426;4.886;2022-07-29T01:46:57;4.10;;;2.50;;
11572;SDS011;5842;52.426;4.886;2022-07-29T01:49:28;4.20;;;2.40;;
11572;SDS011;5842;52.426;4.886;2022-07-29T01:52:02;6.33;;;2.70;;
11572;SDS011;5842;52.426;4.886;2022-07-29T01:54:34;4.03;;;2.53;;
11572;SDS011;5842;52.426;4.886;2022-07-29T01:57:08;3.53;;;2.37;;
11572;SDS011;5842;52.426;4.886;2022-07-29T01:59:40;3.57;;;2.87;;
11572;SDS011;5842;52.426;4.886;2022-07-29T02:02:10;3.00;;;2.40;;
11572;SDS011;5842;52.426;4.886;2022-07-29T02:04:40;4.67;;;2.53;;
11572;SDS011;5842;52.426;4.886;2022-07-29T02:07:10;3.07;;;2.40;;
11572;SDS011;5842;52.426;4.886;2022-07-29T02:09:39;5.23;;;2.60;;
11572;SDS011;5842;52.426;4.886;2022-07-29T02:12:08;3.13;;;2.77;;
11572;SDS011;5842;52.426;4.886;2022-07-29T02:14:39;4.97;;;2.90;;
11572;SDS011;5842;52.426;4.886;2022-07-29T02:17:11;4.03;;;2.83;;
11572;SDS011;5842;52.426;4.886;2022-07-29T02:19:40;4.13;;;2.60;;
11572;SDS011;5842;52.426;4.886;2022-07-29T02:22:11;4.87;;;2.67;;
11572;SDS011;5842;52.426;4.886;2022-07-29T02:24:39;3.50;;;2.83;;
11572;SDS011;5842;52.426;4.886;2022-07-29T02:27:07;6.40;;;2.97;;
11572;SDS011;5842;52.426;4.886;2022-07-29T02:29:35;3.70;;;3.10;;
11572;SDS011;5842;52.426;4.886;2022-07-29T02:32:07;4.47;;;3.10;;
11572;SDS011;5842;52.426;4.886;2022-07-29T02:34:37;3.67;;;2.90;;
11572;SDS011;5842;52.426;4.886;2022-07-29T02:37:07;3.60;;;2.70;;
11572;SDS011;5842;52.426;4.886;2022-07-29T02:39:35;3.07;;;2.70;;
11572;SDS011;5842;52.426;4.886;2022-07-29T02:42:05;4.77;;;3.00;;
11572;SDS011;5842;52.426;4.886;2022-07-29T02:44:36;6.27;;;3.30;;
11572;SDS011;5842;52.426;4.886;2022-07-29T02:47:04;3.47;;;2.80;;
11572;SDS011;5842;52.426;4.886;2022-07-29T02:49:41;5.33;;;3.10;;
11572;SDS011;5842;52.426;4.886;2022-07-29T02:52:15;3.77;;;2.83;;
11572;SDS011;5842;52.426;4.886;2022-07-29T02:54:50;5.00;;;2.93;;
11572;SDS011;5842;52.426;4.886;2022-07-29T02:57:23;3.03;;;2.73;;
11572;SDS011;5842;52.426;4.886;2022-07-29T03:00:01;4.27;;;2.80;;
11572;SDS011;5842;52.426;4.886;2022-07-29T03:02:33;2.60;;;2.40;;
11572;SDS011;5842;52.426;4.886;2022-07-29T03:05:03;3.00;;;2.50;;
11572;SDS011;5842;52.426;4.886;2022-07-29T03:07:32;4.53;;;2.70;;
11572;SDS011;5842;52.426;4.886;2022-07-29T03:10:01;3.07;;;2.30;;
11572;SDS011;5842;52.426;4.886;2022-07-29T03:12:29;3.90;;;2.70;;
11572;SDS011;5842;52.426;4.886;2022-07-29T03:14:57;3.87;;;2.27;;
11572;SDS011;5842;52.426;4.886;2022-07-29T03:17:27;2.50;;;2.30;;
11572;SDS011;5842;52.426;4.886;2022-07-29T03:19:56;3.87;;;2.77;;
11572;SDS011;5842;52.426;4.886;2022-07-29T03:22:24;2.97;;;2.40;;
11572;SDS011;5842;52.426;4.886;2022-07-29T03:24:51;2.80;;;2.50;;
11572;SDS011;5842;52.426;4.886;2022-07-29T03:27:18;4.03;;;2.67;;
11572;SDS011;5842;52.426;4.886;2022-07-29T03:29:46;3.00;;;2.50;;
11572;SDS011;5842;52.426;4.886;2022-07-29T03:32:13;5.83;;;2.90;;
11572;SDS011;5842;52.426;4.886;2022-07-29T03:34:40;3.87;;;2.50;;
11572;SDS011;5842;52.426;4.886;2022-07-29T03:37:08;4.13;;;2.87;;
11572;SDS011;5842;52.426;4.886;2022-07-29T03:39:37;3.57;;;2.60;;
11572;SDS011;5842;52.426;4.886;2022-07-29T03:42:06;2.70;;;2.30;;
11572;SDS011;5842;52.426;4.886;2022-07-29T03:44:37;3.87;;;2.40;;
11572;SDS011;5842;52.426;4.886;2022-07-29T03:47:06;4.00;;;2.37;;
11572;SDS011;5842;52.426;4.886;2022-07-29T03:49:36;3.13;;;2.20;;
11572;SDS011;5842;52.426;4.886;2022-07-29T03:52:04;4.53;;;2.60;;
11572;SDS011;5842;52.426;4.886;2022-07-29T03:54:33;2.93;;;2.60;;
11572;SDS011;5842;52.426;4.886;2022-07-29T03:57:01;3.87;;;2.37;;
11572;SDS011;5842;52.426;4.886;2022-07-29T03:59:31;3.23;;;2.70;;
11572;SDS011;5842;52.426;4.886;2022-07-29T04:02:00;4.13;;;2.77;;
11572;SDS011;5842;52.426;4.886;2022-07-29T04:04:28;4.33;;;3.00;;
11572;SDS011;5842;52.426;4.886;2022-07-29T04:07:01;3.83;;;2.70;;
11572;SDS011;5842;52.426;4.886;2022-07-29T04:09:29;5.10;;;2.97;;
11572;SDS011;5842;52.426;4.886;2022-07-29T04:11:57;4.20;;;2.60;;
11572;SDS011;5842;52.426;4.886;2022-07-29T04:14:24;2.93;;;2.67;;
11572;SDS011;5842;52.426;4.886;2022-07-29T04:16:52;4.57;;;3.13;;
11572;SDS011;5842;52.426;4.886;2022-07-29T04:19:19;6.40;;;3.10;;
11572;SDS011;5842;52.426;4.886;2022-07-29T04:21:46;5.27;;;2.83;;
11572;SDS011;5842;52.426;4.886;2022-07-29T04:24:13;5.50;;;2.80;;
11572;SDS011;5842;52.426;4.886;2022-07-29T04:26:40;3.67;;;2.90;;
11572;SDS011;5842;52.426;4.886;2022-07-29T04:29:09;3.73;;;2.67;;
11572;SDS011;5842;52.426;4.886;2022-07-29T04:31:37;5.73;;;3.20;;
11572;SDS011;5842;52.426;4.886;2022-07-29T04:34:04;4.30;;;2.90;;
11572;SDS011;5842;52.426;4.886;2022-07-29T04:36:31;5.97;;;2.90;;
11572;SDS011;5842;52.426;4.886;2022-07-29T04:38:58;3.90;;;2.80;;
11572;SDS011;5842;52.426;4.886;2022-07-29T04:41:26;5.50;;;3.00;;
11572;SDS011;5842;52.426;4.886;2022-07-29T04:43:53;5.03;;;2.53;;
11572;SDS011;5842;52.426;4.886;2022-07-29T04:46:22;3.90;;;2.53;;
11572;SDS011;5842;52.426;4.886;2022-07-29T04:48:49;7.47;;;2.83;;
11572;SDS011;5842;52.426;4.886;2022-07-29T04:51:16;3.27;;;2.67;;
11572;SDS011;5842;52.426;4.886;2022-07-29T04:53:43;2.90;;;2.33;;
11572;SDS011;5842;52.426;4.886;2022-07-29T04:56:10;3.60;;;2.80;;
11572;SDS011;5842;52.426;4.886;2022-07-29T04:58:37;4.37;;;2.60;;
11572;SDS011;5842;52.426;4.886;2022-07-29T05:01:05;4.03;;;2.70;;
11572;SDS011;5842;52.426;4.886;2022-07-29T05:03:33;5.67;;;2.77;;
11572;SDS011;5842;52.426;4.886;2022-07-29T05:06:00;4.20;;;2.60;;
11572;SDS011;5842;52.426;4.886;2022-07-29T05:08:27;4.43;;;2.70;;
11572;SDS011;5842;52.426;4.886;2022-07-29T05:10:55;4.20;;;2.70;;
11572;SDS011;5842;52.426;4.886;2022-07-29T05:13:22;4.93;;;2.53;;
11572;SDS011;5842;52.426;4.886;2022-07-29T05:15:49;4.33;;;2.87;;
11572;SDS011;5842;52.426;4.886;2022-07-29T05:18:16;4.10;;;2.50;;
11572;SDS011;5842;52.426;4.886;2022-07-29T05:20:45;3.30;;;2.20;;
11572;SDS011;5842;52.426;4.886;2022-07-29T05:23:12;4.73;;;2.60;;
11572;SDS011;5842;52.426;4.886;2022-07-29T05:25:39;4.00;;;2.60;;
11572;SDS011;5842;52.426;4.886;2022-07-29T05:28:06;4.70;;;2.50;;
11572;SDS011;5842;52.426;4.886;2022-07-29T05:30:33;3.77;;;2.37;;
11572;SDS011;5842;52.426;4.886;2022-07-29T05:33:00;4.23;;;2.63;;
11572;SDS011;5842;52.426;4.886;2022-07-29T05:35:27;3.27;;;2.03;;
11572;SDS011;5842;52.426;4.886;2022-07-29T05:37:56;4.23;;;2.43;;
11572;SDS011;5842;52.426;4.886;2022-07-29T05:40:23;2.67;;;2.40;;
11572;SDS011;5842;52.426;4.886;2022-07-29T05:42:51;4.47;;;2.30;;
11572;SDS011;5842;52.426;4.886;2022-07-29T05:45:18;3.37;;;2.50;;
11572;SDS011;5842;52.426;4.886;2022-07-29T05:47:45;5.47;;;2.60;;
11572;SDS011;5842;52.426;4.886;2022-07-29T05:50:12;3.27;;;2.40;;
11572;SDS011;5842;52.426;4.886;2022-07-29T05:52:39;3.50;;;2.23;;
11572;SDS011;5842;52.426;4.886;2022-07-29T05:55:08;5.30;;;2.40;;
11572;SDS011;5842;52.426;4.886;2022-07-29T05:57:36;4.57;;;2.37;;
11572;SDS011;5842;52.426;4.886;2022-07-29T06:00:03;3.87;;;2.10;;
11572;SDS011;5842;52.426;4.886;2022-07-29T06:02:31;2.47;;;2.10;;
11572;SDS011;5842;52.426;4.886;2022-07-29T06:04:58;3.60;;;2.30;;
11572;SDS011;5842;52.426;4.886;2022-07-29T06:07:25;3.50;;;1.90;;
11572;SDS011;5842;52.426;4.886;2022-07-29T06:09:52;2.70;;;2.27;;
11572;SDS011;5842;52.426;4.886;2022-07-29T06:12:22;2.53;;;2.13;;
11572;SDS011;5842;52.426;4.886;2022-07-29T06:14:49;2.10;;;1.90;;
11572;SDS011;5842;52.426;4.886;2022-07-29T06:17:16;5.57;;;2.20;;
11572;SDS011;5842;52.426;4.886;2022-07-29T06:19:43;3.40;;;2.30;;
11572;SDS011;5842;52.426;4.886;2022-07-29T06:22:10;3.97;;;2.30;;
11572;SDS011;5842;52.426;4.886;2022-07-29T06:24:38;3.53;;;2.33;;
11572;SDS011;5842;52.426;4.886;2022-07-29T06:27:08;3.87;;;2.17;;
11572;SDS011;5842;52.426;4.886;2022-07-29T06:29:37;3.03;;;1.97;;
11572;SDS011;5842;52.426;4.886;2022-07-29T06:51:43;3.92;;;2.30;;
11572;SDS011;5842;52.426;4.886;2022-07-29T06:54:10;3.53;;;2.43;;
11572;SDS011;5842;52.426;4.886;2022-07-29T06:56:37;3.40;;;2.10;;
11572;SDS011;5842;52.426;4.886;2022-07-29T06:59:06;3.77;;;2.10;;
11572;SDS011;5842;52.426;4.886;2022-07-29T07:01:35;4.77;;;2.07;;
11572;SDS011;5842;52.426;4.886;2022-07-29T07:38:27;2.97;;;1.90;;
11572;SDS011;5842;52.426;4.886;2022-07-29T13:26:27;5.78;;;3.35;;
11572;SDS011;5842;52.426;4.886;2022-07-29T13:28:56;5.45;;;3.17;;
11572;SDS011;5842;52.426;4.886;2022-07-29T13:31:23;5.55;;;3.90;;
11572;SDS011;5842;52.426;4.886;2022-07-29T13:33:50;5.75;;;3.45;;
11572;SDS011;5842;52.426;4.886;2022-07-29T13:36:17;4.95;;;3.20;;
11572;SDS011;5842;52.426;4.886;2022-07-29T13:38:44;7.35;;;3.75;;
11572;SDS011;5842;52.426;4.886;2022-07-29T13:41:11;3.90;;;3.38;;
11572;SDS011;5842;52.426;4.886;2022-07-29T13:43:39;7.35;;;3.40;;
11572;SDS011;5842;52.426;4.886;2022-07-29T13:46:07;4.65;;;3.40;;
11572;SDS011;5842;52.426;4.886;2022-07-29T13:48:34;5.78;;;3.67;;
11572;SDS011;5842;52.426;4.886;2022-07-29T13:51:01;4.38;;;3.60;;
11572;SDS011;5842;52.426;4.886;2022-07-29T13:53:29;4.43;;;3.20;;
11572;SDS011;5842;52.426;4.886;2022-07-29T16:31:01;13.02;;;5.57;;
11572;SDS011;5842;52.426;4.886;2022-07-29T16:33:28;9.52;;;5.32;;
11572;SDS011;5842;52.426;4.886;2022-07-29T16:35:55;5.80;;;4.00;;
11572;SDS011;5842;52.426;4.886;2022-07-29T16:38:23;6.70;;;3.50;;
11572;SDS011;5842;52.426;4.886;2022-07-29T16:40:51;4.82;;;3.13;;
11572;SDS011;5842;52.426;4.886;2022-07-29T16:43:18;6.82;;;3.75;;
11572;SDS011;5842;52.426;4.886;2022-07-29T16:45:45;4.77;;;3.20;;
11572;SDS011;5842;52.426;4.886;2022-07-29T16:48:12;6.67;;;3.27;;
11572;SDS011;5842;52.426;4.886;2022-07-29T16:50:40;4.63;;;3.33;;
11572;SDS011;5842;52.426;4.886;2022-07-29T16:53:07;3.57;;;3.20;;
11572;SDS011;5842;52.426;4.886;2022-07-29T16:55:36;6.60;;;3.20;;
11572;SDS011;5842;52.426;4.886;2022-07-29T16:58:03;5.20;;;2.80;;
11572;SDS011;5842;52.426;4.886;2022-07-29T17:00:30;9.40;;;3.40;;
11572;SDS011;5842;52.426;4.886;2022-07-29T17:02:57;5.90;;;2.80;;
11572;SDS011;5842;52.426;4.886;2022-07-29T17:05:24;5.83;;;3.40;;
11572;SDS011;5842;52.426;4.886;2022-07-29T17:07:54;5.17;;;2.80;;
11572;SDS011;5842;52.426;4.886;2022-07-29T17:10:22;8.77;;;3.30;;
11572;SDS011;5842;52.426;4.886;2022-07-29T17:12:51;7.20;;;3.13;;
11572;SDS011;5842;52.426;4.886;2022-07-29T17:15:18;8.47;;;3.00;;
11572;SDS011;5842;52.426;4.886;2022-07-29T17:17:46;8.73;;;3.43;;
11572;SDS011;5842;52.426;4.886;2022-07-29T17:20:14;4.57;;;3.00;;
11572;SDS011;5842;52.426;4.886;2022-07-29T17:22:41;5.07;;;3.30;;
11572;SDS011;5842;52.426;4.886;2022-07-29T17:25:08;7.53;;;3.47;;
11572;SDS011;5842;52.426;4.886;2022-07-29T17:27:37;7.10;;;3.30;;
11572;SDS011;5842;52.426;4.886;2022-07-29T17:30:07;8.97;;;3.77;;
11572;SDS011;5842;52.426;4.886;2022-07-29T17:32:35;5.33;;;3.40;;
11572;SDS011;5842;52.426;4.886;2022-07-29T17:35:04;7.00;;;3.60;;
11572;SDS011;5842;52.426;4.886;2022-07-29T17:37:48;5.30;;;3.17;;
11572;SDS011;5842;52.426;4.886;2022-07-29T17:40:15;7.60;;;3.00;;
11572;SDS011;5842;52.426;4.886;2022-07-29T17:42:45;8.50;;;3.20;;
11572;SDS011;5842;52.426;4.886;2022-07-29T17:45:15;7.00;;;3.23;;
11572;SDS011;5842;52.426;4.886;2022-07-29T17:47:45;7.63;;;3.37;;
11572;SDS011;5842;52.426;4.886;2022-07-29T17:50:18;4.83;;;2.80;;
11572;SDS011;5842;52.426;4.886;2022-07-29T17:52:45;7.70;;;3.17;;
11572;SDS011;5842;52.426;4.886;2022-07-29T17:55:12;7.83;;;3.30;;
11572;SDS011;5842;52.426;4.886;2022-07-29T17:57:39;5.90;;;3.10;;
11572;SDS011;5842;52.426;4.886;2022-07-29T18:00:10;5.77;;;3.13;;
11572;SDS011;5842;52.426;4.886;2022-07-29T18:02:48;6.30;;;3.03;;
11572;SDS011;5842;52.426;4.886;2022-07-29T18:05:16;5.80;;;3.00;;
11572;SDS011;5842;52.426;4.886;2022-07-29T18:07:43;6.70;;;3.50;;
11572;SDS011;5842;52.426;4.886;2022-07-29T18:10:10;6.23;;;3.00;;
11572;SDS011;5842;52.426;4.886;2022-07-29T18:12:37;5.87;;;3.20;;
11572;SDS011;5842;52.426;4.886;2022-07-29T18:15:05;5.93;;;3.37;;
11572;SDS011;5842;52.426;4.886;2022-07-29T18:17:33;8.57;;;3.10;;
11572;SDS011;5842;52.426;4.886;2022-07-29T18:20:01;6.60;;;3.13;;
11572;SDS011;5842;52.426;4.886;2022-07-29T18:22:29;6.57;;;3.37;;
11572;SDS011;5842;52.426;4.886;2022-07-29T18:24:56;4.53;;;3.10;;
11572;SDS011;5842;52.426;4.886;2022-07-29T18:27:23;7.80;;;3.30;;
11572;SDS011;5842;52.426;4.886;2022-07-29T18:29:50;10.03;;;3.47;;
11572;SDS011;5842;52.426;4.886;2022-07-29T18:32:19;7.73;;;3.50;;
11572;SDS011;5842;52.426;4.886;2022-07-29T18:34:49;6.17;;;3.63;;
11572;SDS011;5842;52.426;4.886;2022-07-29T18:37:18;6.23;;;3.20;;
11572;SDS011;5842;52.426;4.886;2022-07-29T18:39:45;5.33;;;3.13;;
11572;SDS011;5842;52.426;4.886;2022-07-29T18:42:12;5.93;;;3.37;;
11572;SDS011;5842;52.426;4.886;2022-07-29T18:44:39;7.00;;;3.43;;
11572;SDS011;5842;52.426;4.886;2022-07-29T18:47:06;6.40;;;3.80;;
11572;SDS011;5842;52.426;4.886;2022-07-29T18:49:36;5.77;;;3.40;;
11572;SDS011;5842;52.426;4.886;2022-07-29T18:52:03;6.17;;;3.70;;
11572;SDS011;5842;52.426;4.886;2022-07-29T18:54:34;6.13;;;3.67;;
11572;SDS011;5842;52.426;4.886;2022-07-29T18:57:01;6.40;;;3.33;;
11572;SDS011;5842;52.426;4.886;2022-07-29T18:59:28;7.57;;;3.27;;
11572;SDS011;5842;52.426;4.886;2022-07-29T19:02:04;7.40;;;3.40;;
11572;SDS011;5842;52.426;4.886;2022-07-29T19:04:32;8.83;;;3.60;;
11572;SDS011;5842;52.426;4.886;2022-07-29T19:06:59;8.33;;;3.67;;
11572;SDS011;5842;52.426;4.886;2022-07-29T19:09:27;8.83;;;3.97;;
11572;SDS011;5842;52.426;4.886;2022-07-29T19:11:58;6.80;;;4.40;;
11572;SDS011;5842;52.426;4.886;2022-07-29T19:14:25;7.23;;;3.97;;
11572;SDS011;5842;52.426;4.886;2022-07-29T19:16:52;9.30;;;4.20;;
11572;SDS011;5842;52.426;4.886;2022-07-29T19:19:19;9.03;;;4.43;;
11572;SDS011;5842;52.426;4.886;2022-07-29T19:21:46;8.93;;;4.40;;
11572;SDS011;5842;52.426;4.886;2022-07-29T19:24:13;6.70;;;4.00;;
11572;SDS011;5842;52.426;4.886;2022-07-29T19:26:41;7.93;;;4.17;;
11572;SDS011;5842;52.426;4.886;2022-07-29T19:29:13;11.20;;;4.13;;
11572;SDS011;5842;52.426;4.886;2022-07-29T19:31:41;8.23;;;3.90;;
11572;SDS011;5842;52.426;4.886;2022-07-29T19:34:11;7.00;;;3.73;;
11572;SDS011;5842;52.426;4.886;2022-07-29T19:36:40;6.20;;;3.70;;
11572;SDS011;5842;52.426;4.886;2022-07-29T19:39:11;6.97;;;3.70;;
11572;SDS011;5842;52.426;4.886;2022-07-29T19:41:39;11.13;;;4.27;;
11572;SDS011;5842;52.426;4.886;2022-07-29T19:44:06;8.07;;;3.90;;
11572;SDS011;5842;52.426;4.886;2022-07-29T19:46:36;8.47;;;4.37;;
11572;SDS011;5842;52.426;4.886;2022-07-29T19:49:04;7.57;;;3.73;;
11572;SDS011;5842;52.426;4.886;2022-07-29T19:51:31;7.47;;;3.93;;
11572;SDS011;5842;52.426;4.886;2022-07-29T19:54:03;7.47;;;3.97;;
11572;SDS011;5842;52.426;4.886;2022-07-29T19:56:31;7.50;;;4.33;;
11572;SDS011;5842;52.426;4.886;2022-07-29T19:58:58;7.90;;;4.30;;
11572;SDS011;5842;52.426;4.886;2022-07-29T20:01:25;7.03;;;4.80;;
11572;SDS011;5842;52.426;4.886;2022-07-29T20:03:54;8.10;;;3.80;;
11572;SDS011;5842;52.426;4.886;2022-07-29T20:06:24;7.40;;;4.07;;
11572;SDS011;5842;52.426;4.886;2022-07-29T20:08:51;9.90;;;4.30;;
11572;SDS011;5842;52.426;4.886;2022-07-29T20:11:19;6.07;;;4.17;;
11572;SDS011;5842;52.426;4.886;2022-07-29T20:13:46;7.23;;;4.27;;
11572;SDS011;5842;52.426;4.886;2022-07-29T20:16:14;9.30;;;4.30;;
11572;SDS011;5842;52.426;4.886;2022-07-29T20:18:42;6.87;;;3.97;;
11572;SDS011;5842;52.426;4.886;2022-07-29T20:21:11;8.27;;;4.00;;
11572;SDS011;5842;52.426;4.886;2022-07-29T20:23:38;9.43;;;4.80;;
11572;SDS011;5842;52.426;4.886;2022-07-29T20:26:05;6.10;;;4.40;;
11572;SDS011;5842;52.426;4.886;2022-07-29T20:28:32;9.73;;;5.13;;
11572;SDS011;5842;52.426;4.886;2022-07-29T20:31:00;10.80;;;4.20;;
11572;SDS011;5842;52.426;4.886;2022-07-29T20:33:29;8.37;;;4.40;;
11572;SDS011;5842;52.426;4.886;2022-07-29T20:35:56;7.80;;;4.00;;
11572;SDS011;5842;52.426;4.886;2022-07-29T20:38:25;8.57;;;4.10;;
11572;SDS011;5842;52.426;4.886;2022-07-29T20:40:54;6.63;;;4.03;;
11572;SDS011;5842;52.426;4.886;2022-07-29T20:43:22;7.57;;;3.83;;
11572;SDS011;5842;52.426;4.886;2022-07-29T20:45:50;7.03;;;4.23;;
11572;SDS011;5842;52.426;4.886;2022-07-29T20:48:19;6.37;;;3.90;;
11572;SDS011;5842;52.426;4.886;2022-07-29T20:50:46;7.57;;;4.57;;
11572;SDS011;5842;52.426;4.886;2022-07-29T20:53:15;10.47;;;5.00;;
11572;SDS011;5842;52.426;4.886;2022-07-29T20:55:45;9.10;;;5.07;;
11572;SDS011;5842;52.426;4.886;2022-07-29T20:58:12;5.63;;;4.77;;
11572;SDS011;5842;52.426;4.886;2022-07-29T21:00:40;6.13;;;4.80;;
11572;SDS011;5842;52.426;4.886;2022-07-29T21:03:09;9.27;;;4.77;;
11572;SDS011;5842;52.426;4.886;2022-07-29T21:05:36;8.20;;;4.70;;
11572;SDS011;5842;52.426;4.886;2022-07-29T21:08:04;8.80;;;5.17;;
11572;SDS011;5842;52.426;4.886;2022-07-29T21:10:32;7.23;;;4.87;;
11572;SDS011;5842;52.426;4.886;2022-07-29T21:13:00;9.13;;;5.17;;
11572;SDS011;5842;52.426;4.886;2022-07-29T21:15:28;7.07;;;4.80;;
11572;SDS011;5842;52.426;4.886;2022-07-29T21:17:57;8.40;;;5.07;;
11572;SDS011;5842;52.426;4.886;2022-07-29T21:20:27;8.00;;;5.50;;
11572;SDS011;5842;52.426;4.886;2022-07-29T21:22:57;10.37;;;5.10;;
11572;SDS011;5842;52.426;4.886;2022-07-29T21:25:24;8.60;;;5.20;;
11572;SDS011;5842;52.426;4.886;2022-07-29T21:27:52;9.50;;;5.53;;
11572;SDS011;5842;52.426;4.886;2022-07-29T21:30:37;8.50;;;4.87;;
11572;SDS011;5842;52.426;4.886;2022-07-29T21:33:04;8.00;;;5.63;;
11572;SDS011;5842;52.426;4.886;2022-07-29T21:35:36;9.63;;;5.23;;
11572;SDS011;5842;52.426;4.886;2022-07-29T21:38:03;8.57;;;5.43;;
11572;SDS011;5842;52.426;4.886;2022-07-29T21:40:32;7.57;;;5.00;;
11572;SDS011;5842;52.426;4.886;2022-07-29T21:42:59;8.07;;;5.40;;
11572;SDS011;5842;52.426;4.886;2022-07-29T21:45:26;10.53;;;6.20;;
11572;SDS011;5842;52.426;4.886;2022-07-29T21:47:54;7.40;;;5.23;;
11572;SDS011;5842;52.426;4.886;2022-07-29T21:50:21;10.50;;;5.13;;
11572;SDS011;5842;52.426;4.886;2022-07-29T21:52:48;8.93;;;5.80;;
11572;SDS011;5842;52.426;4.886;2022-07-29T21:55:19;8.80;;;4.80;;
11572;SDS011;5842;52.426;4.886;2022-07-29T21:57:46;6.47;;;4.90;;
11572;SDS011;5842;52.426;4.886;2022-07-29T22:00:13;7.07;;;4.87;;
11572;SDS011;5842;52.426;4.886;2022-07-29T22:02:41;7.73;;;5.67;;
11572;SDS011;5842;52.426;4.886;2022-07-29T22:05:10;9.77;;;5.63;;
11572;SDS011;5842;52.426;4.886;2022-07-29T22:07:38;6.63;;;5.20;;
11572;SDS011;5842;52.426;4.886;2022-07-29T22:10:06;7.20;;;5.37;;
11572;SDS011;5842;52.426;4.886;2022-07-29T22:12:33;10.27;;;5.07;;
11572;SDS011;5842;52.426;4.886;2022-07-29T22:15:00;9.40;;;5.47;;
11572;SDS011;5842;52.426;4.886;2022-07-29T22:17:28;9.13;;;5.07;;
11572;SDS011;5842;52.426;4.886;2022-07-29T22:19:57;8.73;;;4.87;;
11572;SDS011;5842;52.426;4.886;2022-07-29T22:22:25;9.67;;;4.73;;
11572;SDS011;5842;52.426;4.886;2022-07-29T22:24:52;7.53;;;5.27;;
11572;SDS011;5842;52.426;4.886;2022-07-29T22:27:20;8.87;;;5.33;;
11572;SDS011;5842;52.426;4.886;2022-07-29T22:29:47;7.20;;;5.17;;
11572;SDS011;5842;52.426;4.886;2022-07-29T22:32:14;8.63;;;5.10;;
11572;SDS011;5842;52.426;4.886;2022-07-29T22:34:41;5.97;;;5.30;;
11572;SDS011;5842;52.426;4.886;2022-07-29T22:37:09;8.87;;;5.70;;
11572;SDS011;5842;52.426;4.886;2022-07-29T22:39:38;8.80;;;5.80;;
11572;SDS011;5842;52.426;4.886;2022-07-29T22:42:05;9.50;;;6.03;;
11572;SDS011;5842;52.426;4.886;2022-07-29T22:44:32;7.70;;;5.50;;
11572;SDS011;5842;52.426;4.886;2022-07-29T22:47:00;9.40;;;5.47;;
11572;SDS011;5842;52.426;4.886;2022-07-29T22:49:28;8.47;;;5.57;;
11572;SDS011;5842;52.426;4.886;2022-07-29T22:51:55;10.23;;;5.80;;
11572;SDS011;5842;52.426;4.886;2022-07-29T22:54:23;8.77;;;5.60;;
11572;SDS011;5842;52.426;4.886;2022-07-29T22:56:51;8.63;;;5.80;;
11572;SDS011;5842;52.426;4.886;2022-07-29T22:59:19;8.43;;;5.53;;
11572;SDS011;5842;52.426;4.886;2022-07-29T23:01:46;7.93;;;5.30;;
11572;SDS011;5842;52.426;4.886;2022-07-29T23:04:13;8.97;;;5.63;;
11572;SDS011;5842;52.426;4.886;2022-07-29T23:06:40;8.67;;;5.50;;
11572;SDS011;5842;52.426;4.886;2022-07-29T23:09:07;7.07;;;5.70;;
11572;SDS011;5842;52.426;4.886;2022-07-29T23:11:34;8.63;;;6.20;;
11572;SDS011;5842;52.426;4.886;2022-07-29T23:14:03;8.57;;;5.93;;
11572;SDS011;5842;52.426;4.886;2022-07-29T23:16:30;7.77;;;6.00;;
11572;SDS011;5842;52.426;4.886;2022-07-29T23:18:57;9.17;;;6.20;;
11572;SDS011;5842;52.426;4.886;2022-07-29T23:21:25;7.37;;;5.93;;
11572;SDS011;5842;52.426;4.886;2022-07-29T23:23:52;7.37;;;5.87;;
11572;SDS011;5842;52.426;4.886;2022-07-29T23:26:19;7.43;;;5.90;;
11572;SDS011;5842;52.426;4.886;2022-07-29T23:28:46;7.27;;;5.60;;
11572;SDS011;5842;52.426;4.886;2022-07-29T23:31:15;11.03;;;6.33;;
11572;SDS011;5842;52.426;4.886;2022-07-29T23:33:43;13.23;;;7.00;;
11572;SDS011;5842;52.426;4.886;2022-07-29T23:36:10;11.07;;;7.10;;
11572;SDS011;5842;52.426;4.886;2022-07-29T23:38:37;10.10;;;6.63;;
11572;SDS011;5842;52.426;4.886;2022-07-29T23:41:05;9.77;;;7.47;;
11572;SDS011;5842;52.426;4.886;2022-07-29T23:43:33;11.33;;;6.90;;
11572;SDS011;5842;52.426;4.886;2022-07-29T23:46:00;11.23;;;6.73;;
11572;SDS011;5842;52.426;4.886;2022-07-29T23:48:29;8.80;;;6.53;;
11572;SDS011;5842;52.426;4.886;2022-07-29T23:50:57;10.07;;;7.23;;
11572;SDS011;5842;52.426;4.886;2022-07-29T23:53:25;10.63;;;7.00;;
11572;SDS011;5842;52.426;4.886;2022-07-29T23:55:52;9.97;;;7.17;;
11572;SDS011;5842;52.426;4.886;2022-07-29T23:58:19;10.53;;;7.27;;
